Time;durP1;ratioP1;P1;durP2;ratioP2;P2;SDS_P1;SDS_P2;PMS_P1;PMS_P2;Temp;Humidity;BMP_temperature;BMP_pressure;BME280_temperature;BME280_humidity;BME280_pressure;Samples;Min_cycle;Max_cycle;Signal;HPM_P1;HPM_P2
2022/01/22 00:01:48;;;;;;;5.88;3.40;;;19.00;96.10;;;;;;4233231;28;20263;-78
2022/01/22 00:03:51;;;;;;;5.13;3.20;;;19.00;96.10;;;;;;4233732;28;20213;-78
2022/01/22 00:05:53;;;;;;;6.63;3.05;;;19.00;96.10;;;;;;4233570;28;20611;-78
2022/01/22 00:07:55;;;;;;;6.28;3.38;;;19.00;96.00;;;;;;4233605;28;20280;-78
2022/01/22 00:10:04;;;;;;;5.80;2.97;;;19.00;96.00;;;;;;4233503;27;20275;-78
2022/01/22 00:12:11;;;;;;;7.07;3.30;;;19.00;96.00;;;;;;4233216;28;20229;-78
2022/01/22 00:14:24;;;;;;;4.32;3.03;;;18.90;96.00;;;;;;4233539;28;20214;-78
2022/01/22 00:16:26;;;;;;;4.15;2.92;;;19.00;96.00;;;;;;4217034;28;20218;-78
2022/01/22 00:18:29;;;;;;;6.57;3.40;;;18.90;96.00;;;;;;4230570;27;20206;-78
2022/01/22 00:20:31;;;;;;;5.70;3.22;;;19.00;96.10;;;;;;4233266;28;20222;-78
2022/01/22 00:22:36;;;;;;;4.93;3.17;;;18.90;96.00;;;;;;4222837;28;20206;-78
2022/01/22 00:24:40;;;;;;;5.63;2.80;;;18.90;96.00;;;;;;4233314;28;20278;-78
2022/01/22 00:26:45;;;;;;;6.68;3.13;;;18.90;96.00;;;;;;4233183;28;20974;-78
2022/01/22 00:28:47;;;;;;;5.63;3.42;;;18.90;96.00;;;;;;4233133;28;20231;-78
2022/01/22 00:30:49;;;;;;;6.30;3.70;;;18.90;96.00;;;;;;4232489;28;20202;-78
2022/01/22 00:32:52;;;;;;;5.55;3.22;;;18.90;96.00;;;;;;4232287;28;20230;-78
2022/01/22 00:34:55;;;;;;;5.15;2.80;;;18.90;96.00;;;;;;4232344;28;20247;-78
2022/01/22 00:36:57;;;;;;;6.00;3.45;;;18.90;96.00;;;;;;4232702;28;20615;-78
2022/01/22 00:38:59;;;;;;;5.60;3.10;;;18.90;96.30;;;;;;4232997;28;20201;-78
2022/01/22 00:41:02;;;;;;;5.57;3.25;;;18.90;96.00;;;;;;4232740;28;20654;-78
2022/01/22 00:43:05;;;;;;;5.85;3.15;;;18.90;96.00;;;;;;4232845;28;20266;-78
2022/01/22 00:45:09;;;;;;;5.43;3.08;;;18.80;95.90;;;;;;4232769;28;20213;-78
2022/01/22 00:47:11;;;;;;;7.65;3.20;;;18.80;95.90;;;;;;4232904;28;20275;-78
2022/01/22 00:49:13;;;;;;;5.25;3.20;;;18.80;95.90;;;;;;4225655;28;20218;-78
2022/01/22 00:51:16;;;;;;;5.68;3.30;;;18.80;95.90;;;;;;4223413;28;20255;-78
2022/01/22 00:53:19;;;;;;;5.50;3.47;;;18.80;95.90;;;;;;4232661;28;20242;-78
2022/01/22 00:55:21;;;;;;;4.45;2.92;;;18.80;95.90;;;;;;4233355;28;20247;-78
2022/01/22 00:57:23;;;;;;;5.75;3.10;;;18.80;95.90;;;;;;4232747;28;20206;-78
2022/01/22 00:59:27;;;;;;;6.13;3.50;;;18.80;96.20;;;;;;4232953;28;20209;-78
2022/01/22 01:01:29;;;;;;;5.88;3.25;;;18.80;95.90;;;;;;4232660;28;20210;-78
2022/01/22 01:03:34;;;;;;;3.88;3.10;;;18.70;95.90;;;;;;4232891;28;20259;-78
2022/01/22 01:05:36;;;;;;;5.43;3.15;;;18.80;95.90;;;;;;4230292;28;20210;-78
2022/01/22 01:07:39;;;;;;;5.13;3.20;;;18.80;95.90;;;;;;4232139;27;20210;-78
2022/01/22 01:09:44;;;;;;;5.30;3.15;;;18.70;95.90;;;;;;4232782;28;20214;-78
2022/01/22 01:11:50;;;;;;;5.40;3.05;;;18.70;95.90;;;;;;4232439;28;20214;-78
2022/01/22 01:13:57;;;;;;;6.50;3.17;;;18.70;95.90;;;;;;4232706;28;20210;-78
2022/01/22 01:16:14;;;;;;;5.38;3.08;;;18.70;95.90;;;;;;4232568;28;20572;-78
2022/01/22 01:32:43;;;;;;;5.22;3.00;;;18.70;95.90;;;;;;4195605;28;20294;-78
2022/01/22 01:34:49;;;;;;;4.80;2.85;;;18.70;95.90;;;;;;4232097;28;20259;-77
2022/01/22 01:36:51;;;;;;;7.20;3.03;;;18.70;95.90;;;;;;4232012;28;20213;-78
2022/01/22 01:38:57;;;;;;;7.13;3.00;;;18.60;95.90;;;;;;4232291;28;20205;-78
2022/01/22 01:41:07;;;;;;;6.47;3.25;;;18.60;95.90;;;;;;4220393;28;20255;-78
2022/01/22 01:43:20;;;;;;;6.10;2.75;;;18.70;95.90;;;;;;4232118;28;20201;-78
2022/01/22 01:45:22;;;;;;;5.10;3.00;;;18.70;95.90;;;;;;4232551;28;20235;-78
2022/01/22 01:47:25;;;;;;;4.45;2.92;;;18.70;95.90;;;;;;4231799;28;20209;-78
2022/01/22 01:49:30;;;;;;;6.53;3.13;;;18.60;95.80;;;;;;4232265;28;20278;-78
2022/01/22 01:51:34;;;;;;;7.40;3.17;;;18.60;95.80;;;;;;4231803;28;20618;-78
2022/01/22 01:53:50;;;;;;;5.47;3.10;;;18.60;96.20;;;;;;4231960;28;20237;-78
2022/01/22 01:56:05;;;;;;;4.63;2.75;;;18.60;95.80;;;;;;4231347;28;20729;-78
2022/01/22 01:58:06;;;;;;;6.68;3.17;;;18.60;95.80;;;;;;4217001;28;20218;-78
2022/01/22 02:00:12;;;;;;;6.13;3.22;;;18.60;95.80;;;;;;4230083;28;20202;-78
2022/01/22 02:02:15;;;;;;;6.25;2.97;;;18.60;95.80;;;;;;4231416;28;20214;-78
2022/01/22 02:04:17;;;;;;;5.93;3.10;;;18.60;95.80;;;;;;4231585;28;20213;-78
2022/01/22 02:06:21;;;;;;;6.03;3.13;;;18.60;95.80;;;;;;4228593;27;20266;-78
2022/01/22 02:08:23;;;;;;;4.63;2.95;;;18.50;95.80;;;;;;4232836;27;20213;-78
2022/01/22 02:10:29;;;;;;;4.85;3.22;;;18.60;95.80;;;;;;4228545;28;20240;-77
2022/01/22 02:12:57;;;;;;;4.38;3.13;;;18.60;95.80;;;;;;4228747;28;20245;-78
2022/01/22 02:24:26;;;;;;;4.78;2.75;;;18.60;95.80;;;;;;4228415;27;20206;-78
2022/01/22 02:26:29;;;;;;;5.38;3.00;;;18.50;95.80;;;;;;4233386;27;20221;-78
2022/01/22 02:28:33;;;;;;;5.55;3.20;;;18.50;95.80;;;;;;4236413;27;20247;-78
2022/01/22 02:30:39;;;;;;;6.28;3.17;;;18.50;95.80;;;;;;4227615;28;20613;-78
2022/01/22 02:33:04;;;;;;;6.20;2.92;;;18.50;95.80;;;;;;4228223;27;20237;-78
2022/01/22 02:35:12;;;;;;;4.43;2.92;;;18.50;95.80;;;;;;4232084;27;20773;-77
2022/01/22 02:37:18;;;;;;;4.80;3.13;;;18.50;95.80;;;;;;4228711;28;20224;-78
2022/01/22 02:39:24;;;;;;;7.05;3.20;;;18.50;95.80;;;;;;4231842;27;20214;-78
2022/01/22 02:41:27;;;;;;;5.00;2.92;;;18.50;95.80;;;;;;4228868;27;20275;-78
2022/01/22 02:43:31;;;;;;;3.97;2.90;;;18.50;95.80;;;;;;4231206;27;20243;-78
2022/01/22 02:45:33;;;;;;;3.97;2.90;;;18.50;95.80;;;;;;4228340;28;20235;-78
2022/01/22 02:47:36;;;;;;;3.80;2.78;;;18.40;95.70;;;;;;4228648;27;20623;-78
2022/01/22 02:49:39;;;;;;;6.15;3.17;;;18.40;95.80;;;;;;4228540;28;20225;-78
2022/01/22 02:51:41;;;;;;;4.70;3.13;;;18.50;95.80;;;;;;4231098;27;20218;-78
2022/01/22 02:53:45;;;;;;;5.45;3.08;;;18.40;95.80;;;;;;4232121;27;20233;-78
2022/01/22 02:55:47;;;;;;;5.00;2.97;;;18.50;95.80;;;;;;4229732;28;20209;-78
2022/01/22 02:57:50;;;;;;;4.65;2.97;;;18.40;95.80;;;;;;4228120;28;20210;-78
2022/01/22 02:59:52;;;;;;;4.47;3.10;;;18.50;95.90;;;;;;4229311;27;20218;-78
2022/01/22 03:01:55;;;;;;;4.88;2.92;;;18.40;95.80;;;;;;4229644;27;20240;-78
2022/01/22 03:03:57;;;;;;;4.40;2.95;;;18.40;95.80;;;;;;4229480;28;20213;-78
2022/01/22 03:06:01;;;;;;;5.22;3.20;;;18.40;95.80;;;;;;4226325;28;20279;-78
2022/01/22 03:08:07;;;;;;;4.85;3.03;;;18.40;96.20;;;;;;4228724;28;20226;-78
2022/01/22 03:10:13;;;;;;;4.57;3.10;;;18.40;95.80;;;;;;4228024;28;20222;-78
2022/01/22 03:16:56;;;;;;;4.90;3.40;;;18.40;95.80;;;;;;4225706;28;20943;-79
2022/01/22 03:19:03;;;;;;;4.88;2.75;;;18.40;95.80;;;;;;4232198;28;20209;-78
2022/01/22 03:21:15;;;;;;;3.83;2.72;;;18.30;95.80;;;;;;4230810;28;20217;-78
2022/01/22 03:27:54;;;;;;;4.40;2.50;;;18.40;95.90;;;;;;4228394;28;20202;-78
2022/01/22 03:29:57;;;;;;;3.70;2.47;;;18.40;95.80;;;;;;4226437;28;20221;-77
2022/01/22 03:31:59;;;;;;;5.03;3.15;;;18.30;95.80;;;;;;4229605;28;20723;-78
2022/01/22 03:34:02;;;;;;;4.25;2.92;;;18.30;95.90;;;;;;4227877;28;20237;-78
2022/01/22 03:36:06;;;;;;;4.38;3.10;;;18.30;95.80;;;;;;4227865;28;20238;-78
2022/01/22 03:38:09;;;;;;;5.05;3.05;;;18.40;95.90;;;;;;4229756;28;20225;-78
2022/01/22 03:40:13;;;;;;;5.65;3.25;;;18.30;95.90;;;;;;4230235;28;20221;-78
2022/01/22 03:42:17;;;;;;;5.10;2.65;;;18.30;95.90;;;;;;4227940;28;20674;-78
2022/01/22 03:44:20;;;;;;;5.55;2.80;;;18.30;95.90;;;;;;4227769;28;20210;-78
2022/01/22 03:46:23;;;;;;;4.88;2.95;;;18.30;96.10;;;;;;4229417;28;21110;-78
2022/01/22 03:48:25;;;;;;;3.90;2.83;;;18.30;95.90;;;;;;4227799;28;20270;-78
2022/01/22 03:50:27;;;;;;;5.25;2.60;;;18.30;95.90;;;;;;4230937;28;20546;-78
2022/01/22 03:52:30;;;;;;;4.75;3.00;;;18.30;95.90;;;;;;4228079;28;20213;-78
2022/01/22 03:54:32;;;;;;;4.70;2.95;;;18.30;95.90;;;;;;4227406;28;20306;-78
2022/01/22 03:56:35;;;;;;;4.13;2.88;;;18.30;95.90;;;;;;4228147;28;20267;-78
2022/01/22 03:58:40;;;;;;;4.95;2.55;;;18.30;95.90;;;;;;4224457;28;20221;-78
2022/01/22 04:00:43;;;;;;;6.55;3.40;;;18.30;96.00;;;;;;4231666;28;20568;-78
2022/01/22 04:03:13;;;;;;;4.68;3.13;;;18.30;95.90;;;;;;4227696;28;20255;-78
2022/01/22 04:05:14;;;;;;;4.63;3.13;;;18.30;96.00;;;;;;4232386;28;20205;-77
2022/01/22 04:07:58;;;;;;;4.00;2.47;;;18.30;95.90;;;;;;4230018;28;20218;-78
2022/01/22 04:10:04;;;;;;;4.43;2.50;;;18.20;95.90;;;;;;4231259;28;20222;-77
2022/01/22 04:12:09;;;;;;;4.78;3.13;;;18.20;96.00;;;;;;4227002;28;20201;-78
2022/01/22 04:14:18;;;;;;;3.95;2.83;;;18.20;96.00;;;;;;4227300;28;20298;-78
2022/01/22 04:16:21;;;;;;;3.80;2.65;;;18.20;96.00;;;;;;4227521;28;20210;-78
2022/01/22 04:25:26;;;;;;;5.45;2.78;;;18.20;96.00;;;;;;4225343;28;20190;-77
2022/01/22 04:27:29;;;;;;;4.97;2.83;;;18.20;96.00;;;;;;4233780;28;20214;-78
2022/01/22 04:29:32;;;;;;;5.03;3.00;;;18.20;96.00;;;;;;4231700;28;20210;-78
2022/01/22 04:31:35;;;;;;;3.70;2.70;;;18.20;96.00;;;;;;4226192;28;20218;-78
2022/01/22 04:33:38;;;;;;;3.13;2.75;;;18.20;96.00;;;;;;4233466;28;20230;-78
2022/01/22 04:35:40;;;;;;;4.47;2.85;;;18.20;96.00;;;;;;4232843;28;20658;-78
2022/01/22 04:37:44;;;;;;;3.72;2.88;;;18.20;96.40;;;;;;4233465;28;20288;-78
2022/01/22 04:39:47;;;;;;;3.97;2.53;;;18.20;96.00;;;;;;4232928;28;20214;-78
2022/01/22 04:41:52;;;;;;;4.07;2.50;;;18.20;96.00;;;;;;4232975;28;20259;-78
2022/01/22 04:43:59;;;;;;;4.63;2.60;;;18.20;96.00;;;;;;4233469;28;20233;-78
2022/01/22 04:46:17;;;;;;;4.95;2.70;;;18.20;96.10;;;;;;4233322;28;20279;-78
2022/01/22 04:48:39;;;;;;;4.70;2.78;;;18.20;96.10;;;;;;4216711;28;20267;-78
2022/01/22 04:55:30;;;;;;;6.75;2.60;;;18.10;96.00;;;;;;4232437;28;20268;-78
2022/01/22 04:57:36;;;;;;;4.15;2.60;;;18.10;96.00;;;;;;4232237;28;20561;-78
2022/01/22 04:59:38;;;;;;;4.00;2.42;;;18.10;96.10;;;;;;4226357;28;20214;-78
2022/01/22 05:01:42;;;;;;;5.40;3.08;;;18.10;96.10;;;;;;4228546;28;20614;-78
2022/01/22 05:03:44;;;;;;;4.65;2.63;;;18.10;96.10;;;;;;4223882;28;20659;-78
2022/01/22 05:05:47;;;;;;;5.28;2.70;;;18.10;96.10;;;;;;4227557;28;20213;-78
2022/01/22 05:07:49;;;;;;;3.95;2.50;;;18.10;96.10;;;;;;4232565;28;20633;-78
2022/01/22 05:09:52;;;;;;;4.32;2.65;;;18.10;96.10;;;;;;4233014;28;20250;-78
2022/01/22 05:11:54;;;;;;;3.65;2.80;;;18.10;96.10;;;;;;4232680;28;20217;-78
2022/01/22 05:13:56;;;;;;;5.45;2.75;;;18.10;96.10;;;;;;4232289;28;20229;-78
2022/01/22 05:15:59;;;;;;;4.15;2.65;;;18.10;96.10;;;;;;4232622;28;20218;-78
2022/01/22 05:18:06;;;;;;;4.13;2.80;;;18.10;96.10;;;;;;4232734;28;20619;-78
2022/01/22 05:20:15;;;;;;;5.15;2.88;;;18.10;96.10;;;;;;4232304;28;20560;-78
2022/01/22 05:22:31;;;;;;;2.88;2.53;;;18.10;96.20;;;;;;4225473;28;20213;-78
2022/01/22 05:24:38;;;;;;;3.53;2.58;;;18.10;96.10;;;;;;4232789;28;20251;-78
2022/01/22 05:26:58;;;;;;;4.88;2.95;;;18.10;96.10;;;;;;4231976;28;20217;-78
2022/01/22 05:29:16;;;;;;;4.03;2.92;;;18.10;96.20;;;;;;4232151;28;20202;-78
2022/01/22 05:31:34;;;;;;;5.40;2.95;;;18.10;96.20;;;;;;4231519;28;20205;-78
2022/01/22 05:38:17;;;;;;;5.68;3.20;;;18.00;96.20;;;;;;4224393;28;20207;-78
2022/01/22 05:40:20;;;;;;;5.32;3.03;;;18.00;96.20;;;;;;4231512;28;20209;-78
2022/01/22 05:42:22;;;;;;;3.38;2.65;;;18.00;96.20;;;;;;4231707;28;20213;-78
2022/01/22 05:44:25;;;;;;;4.65;2.45;;;18.00;96.30;;;;;;4215857;28;20659;-78
2022/01/22 05:46:28;;;;;;;6.75;3.08;;;18.00;96.20;;;;;;4231884;28;20217;-78
2022/01/22 05:48:30;;;;;;;5.20;2.60;;;18.00;96.60;;;;;;4232200;28;20544;-78
2022/01/22 05:50:44;;;;;;;4.45;2.63;;;18.00;96.20;;;;;;4231975;28;20286;-78
2022/01/22 05:52:55;;;;;;;3.30;2.60;;;18.00;96.30;;;;;;4231653;28;20259;-78
2022/01/22 05:55:24;;;;;;;4.72;2.85;;;18.00;96.30;;;;;;4226451;28;20686;-78
2022/01/22 05:59:45;;;;;;;4.45;2.83;;;18.00;96.30;;;;;;4226979;28;20185;-78
2022/01/22 06:01:48;;;;;;;4.88;2.83;;;18.00;96.30;;;;;;4232070;28;20206;-78
2022/01/22 06:03:50;;;;;;;6.40;2.88;;;18.00;96.40;;;;;;4231460;28;20255;-78
2022/01/22 06:05:54;;;;;;;4.15;3.10;;;18.00;96.40;;;;;;4231832;28;20266;-78
2022/01/22 06:07:57;;;;;;;5.60;2.88;;;18.00;96.40;;;;;;4234559;27;21003;-78
2022/01/22 06:10:15;;;;;;;4.10;2.55;;;18.00;96.40;;;;;;4231510;28;20268;-78
2022/01/22 06:12:29;;;;;;;4.65;2.85;;;18.00;96.40;;;;;;4223241;28;20271;-78
2022/01/22 06:14:32;;;;;;;4.28;3.03;;;17.90;96.40;;;;;;4216145;28;20234;-78
2022/01/22 06:16:34;;;;;;;3.78;2.50;;;18.00;96.40;;;;;;4231449;28;20222;-78
2022/01/22 06:18:37;;;;;;;4.38;2.70;;;17.90;96.40;;;;;;4231449;28;20213;-78
2022/01/22 06:20:39;;;;;;;5.20;2.90;;;18.00;96.50;;;;;;4231608;28;20719;-78
2022/01/22 06:22:43;;;;;;;3.42;2.30;;;18.00;96.50;;;;;;4231214;28;20278;-78
2022/01/22 06:24:45;;;;;;;4.18;3.00;;;17.90;96.50;;;;;;4231114;28;20982;-78
2022/01/22 06:26:48;;;;;;;4.50;2.90;;;18.00;96.50;;;;;;4231027;28;20259;-78
2022/01/22 06:28:50;;;;;;;4.47;3.03;;;17.90;96.50;;;;;;4227325;28;20206;-78
2022/01/22 06:30:52;;;;;;;4.70;3.70;;;17.90;96.50;;;;;;4218637;28;20243;-78
2022/01/22 06:32:55;;;;;;;6.65;3.10;;;17.90;96.50;;;;;;4218924;28;20619;-78
2022/01/22 06:34:57;;;;;;;4.90;3.25;;;18.00;96.90;;;;;;4230905;28;20222;-78
2022/01/22 06:37:00;;;;;;;5.22;3.25;;;17.90;96.50;;;;;;4230704;28;20259;-78
2022/01/22 06:39:12;;;;;;;4.68;3.30;;;17.90;96.50;;;;;;4231064;28;20209;-78
2022/01/22 06:43:34;;;;;;;4.80;3.10;;;17.90;96.60;;;;;;4224383;28;20178;-78
2022/01/22 06:45:36;;;;;;;7.00;3.50;;;17.90;96.60;;;;;;4229818;27;20214;-76
2022/01/22 06:47:39;;;;;;;5.60;3.22;;;17.90;96.60;;;;;;4229659;28;20258;-76
2022/01/22 06:49:41;;;;;;;3.92;3.10;;;17.90;96.60;;;;;;4229997;28;20718;-76
2022/01/22 06:51:44;;;;;;;5.18;3.53;;;17.90;96.60;;;;;;4229369;28;20213;-76
2022/01/22 06:53:46;;;;;;;4.75;2.75;;;17.90;96.60;;;;;;4230010;28;20263;-76
2022/01/22 06:55:55;;;;;;;6.05;3.15;;;17.90;96.60;;;;;;4225978;28;20651;-76
2022/01/22 06:57:58;;;;;;;5.35;3.15;;;17.90;96.70;;;;;;4218150;28;20295;-76
2022/01/22 07:00:00;;;;;;;3.78;2.80;;;17.80;97.00;;;;;;4226396;28;20274;-76
2022/01/22 07:02:03;;;;;;;6.05;3.13;;;17.90;96.70;;;;;;4222601;28;20615;-76
2022/01/22 07:04:06;;;;;;;5.30;3.45;;;17.90;96.70;;;;;;4214189;28;20267;-76
2022/01/22 07:06:08;;;;;;;3.35;2.85;;;17.90;96.70;;;;;;4228805;28;20210;-75
2022/01/22 07:08:10;;;;;;;5.10;3.33;;;17.90;96.70;;;;;;4229716;28;20242;-76
2022/01/22 07:10:13;;;;;;;4.75;3.33;;;17.90;96.70;;;;;;4229500;28;20213;-76
2022/01/22 07:12:17;;;;;;;4.72;3.28;;;17.90;96.80;;;;;;4229376;28;20213;-76
2022/01/22 07:14:19;;;;;;;4.20;2.90;;;17.90;96.80;;;;;;4229243;28;20282;-76
2022/01/22 07:16:21;;;;;;;5.47;3.70;;;17.90;96.80;;;;;;4229339;28;20238;-76
2022/01/22 07:18:24;;;;;;;4.47;3.00;;;17.90;96.80;;;;;;4229327;28;20274;-76
2022/01/22 07:20:29;;;;;;;4.72;3.70;;;17.90;96.90;;;;;;4219711;28;20319;-76
2022/01/22 07:22:39;;;;;;;4.78;3.50;;;17.90;96.90;;;;;;4229080;28;20217;-76
2022/01/22 07:24:41;;;;;;;4.88;3.25;;;17.90;96.90;;;;;;4229116;28;20224;-76
2022/01/22 07:26:44;;;;;;;6.13;3.58;;;17.90;96.80;;;;;;4229438;28;20218;-76
2022/01/22 07:28:48;;;;;;;4.60;3.67;;;17.80;96.80;;;;;;4229470;28;20662;-76
2022/01/22 07:30:50;;;;;;;3.65;3.13;;;17.80;96.90;;;;;;4229097;28;20607;-76
2022/01/22 07:32:52;;;;;;;4.93;3.42;;;17.80;96.90;;;;;;4216269;28;20642;-76
2022/01/22 07:34:55;;;;;;;6.32;3.67;;;17.80;96.90;;;;;;4228571;28;20205;-76
2022/01/22 07:36:59;;;;;;;3.88;3.05;;;17.80;96.90;;;;;;4223757;28;20647;-76
2022/01/22 07:39:01;;;;;;;5.32;3.67;;;17.80;97.00;;;;;;4217601;28;20614;-76
2022/01/22 07:41:03;;;;;;;6.03;3.75;;;17.80;97.00;;;;;;4229483;28;20209;-76
2022/01/22 07:43:09;;;;;;;4.40;3.53;;;17.80;97.00;;;;;;4225979;28;20250;-76
2022/01/22 07:45:13;;;;;;;6.93;3.78;;;17.80;97.00;;;;;;4227353;28;20723;-76
2022/01/22 07:47:15;;;;;;;5.72;3.50;;;17.80;97.00;;;;;;4228987;28;20282;-76
2022/01/22 07:49:19;;;;;;;4.00;3.10;;;17.80;97.00;;;;;;4229331;28;20715;-76
2022/01/22 07:51:21;;;;;;;4.93;3.08;;;17.80;97.00;;;;;;4228875;28;20263;-76
2022/01/22 07:53:24;;;;;;;5.32;3.30;;;17.80;97.00;;;;;;4228859;28;20259;-76
2022/01/22 07:55:27;;;;;;;4.40;3.58;;;17.80;97.00;;;;;;4224493;28;20238;-76
2022/01/22 07:57:29;;;;;;;5.28;3.40;;;17.80;97.00;;;;;;4224770;28;20218;-75
2022/01/22 07:59:33;;;;;;;4.25;3.10;;;17.80;97.00;;;;;;4232360;28;20255;-75
2022/01/22 08:01:36;;;;;;;5.53;3.47;;;17.80;97.00;;;;;;4230005;28;20218;-75
2022/01/22 08:03:38;;;;;;;4.25;3.33;;;17.70;97.20;;;;;;4229991;28;20217;-76
2022/01/22 08:05:41;;;;;;;3.90;3.28;;;17.60;97.50;;;;;;4227848;28;20688;-76
2022/01/22 08:07:44;;;;;;;5.40;3.70;;;17.30;97.90;;;;;;4229876;28;20613;-76
2022/01/22 08:09:46;;;;;;;5.13;3.70;;;17.40;98.00;;;;;;4228429;28;20260;-76
2022/01/22 08:11:49;;;;;;;4.70;3.58;;;17.60;97.80;;;;;;4219749;28;20256;-76
2022/01/22 08:13:51;;;;;;;4.43;3.10;;;17.60;97.70;;;;;;4227405;28;20263;-76
2022/01/22 08:15:54;;;;;;;5.32;3.45;;;17.70;98.10;;;;;;4231865;28;20544;-76
2022/01/22 08:18:00;;;;;;;5.35;2.88;;;17.80;98.00;;;;;;4231320;28;20258;-76
2022/01/22 08:20:03;;;;;;;4.97;3.30;;;17.90;98.40;;;;;;4228387;28;20614;-76
2022/01/22 08:22:05;;;;;;;5.85;3.65;;;17.90;98.40;;;;;;4226324;27;20263;-76
2022/01/22 08:24:08;;;;;;;5.57;3.30;;;18.00;98.80;;;;;;4228940;28;20209;-76
2022/01/22 08:26:16;;;;;;;4.55;2.70;;;18.00;98.70;;;;;;4232293;28;20263;-76
2022/01/22 08:30:40;;;;;;;5.00;3.50;;;18.00;98.70;;;;;;4227602;28;20201;-76
2022/01/22 08:33:06;;;;;;;4.03;3.05;;;18.00;98.60;;;;;;4231320;28;20226;-76
2022/01/22 08:37:30;;;;;;;5.93;3.42;;;18.00;98.60;;;;;;4232072;28;20198;-76
2022/01/22 08:39:33;;;;;;;4.45;3.58;;;18.00;98.70;;;;;;4231632;28;20255;-76
2022/01/22 08:41:36;;;;;;;4.28;3.30;;;18.00;98.80;;;;;;4228780;27;20263;-76
2022/01/22 08:43:38;;;;;;;5.50;3.53;;;18.00;98.70;;;;;;4230258;27;20267;-76
2022/01/22 08:45:40;;;;;;;5.20;3.38;;;18.00;98.70;;;;;;4221067;28;20651;-76
2022/01/22 08:47:43;;;;;;;4.82;3.42;;;18.00;98.70;;;;;;4225618;28;20206;-76
2022/01/22 08:49:45;;;;;;;5.25;3.55;;;18.00;98.90;;;;;;4231660;28;20210;-76
2022/01/22 08:51:49;;;;;;;5.50;3.65;;;18.00;99.00;;;;;;4231379;28;20214;-76
2022/01/22 08:53:51;;;;;;;4.22;3.53;;;18.10;99.10;;;;;;4231348;28;20270;-76
2022/01/22 08:55:54;;;;;;;5.28;3.42;;;18.00;99.10;;;;;;4227473;28;20230;-76
2022/01/22 08:57:56;;;;;;;3.97;3.33;;;18.10;99.10;;;;;;4227515;28;20218;-76
2022/01/22 08:59:59;;;;;;;4.43;3.63;;;18.00;99.20;;;;;;4231418;28;20631;-76
2022/01/22 09:02:02;;;;;;;3.47;2.92;;;18.00;99.30;;;;;;4225818;27;20205;-76
2022/01/22 09:04:04;;;;;;;5.28;3.45;;;18.10;99.40;;;;;;4228763;28;20210;-76
2022/01/22 09:06:08;;;;;;;4.18;3.40;;;18.10;99.30;;;;;;4231502;28;20259;-76
2022/01/22 09:08:14;;;;;;;4.57;3.50;;;18.10;99.30;;;;;;4229366;28;20236;-76
2022/01/22 09:10:17;;;;;;;6.07;3.55;;;18.10;99.40;;;;;;4231398;27;20222;-76
2022/01/22 09:12:19;;;;;;;4.43;3.38;;;18.10;99.50;;;;;;4231330;28;20612;-76
2022/01/22 09:14:22;;;;;;;5.80;3.63;;;18.00;99.40;;;;;;4231093;28;20278;-76
2022/01/22 09:16:25;;;;;;;4.78;3.50;;;18.10;99.50;;;;;;4230788;28;20233;-77
2022/01/22 09:18:27;;;;;;;5.18;3.33;;;18.10;99.50;;;;;;4230140;28;20267;-76
2022/01/22 09:20:54;;;;;;;4.38;3.00;;;18.10;99.50;;;;;;4230716;28;20604;-76
2022/01/22 09:22:57;;;;;;;5.28;3.40;;;18.10;99.50;;;;;;4235241;27;20201;-76
2022/01/22 09:25:00;;;;;;;5.43;3.53;;;18.10;99.50;;;;;;4231318;28;20646;-75
2022/01/22 09:27:05;;;;;;;4.88;3.50;;;18.20;99.60;;;;;;4231565;28;20259;-76
2022/01/22 09:29:07;;;;;;;4.55;3.50;;;18.20;99.50;;;;;;4230552;28;20658;-76
2022/01/22 09:31:10;;;;;;;4.88;3.40;;;18.10;99.50;;;;;;4230503;28;20210;-76
2022/01/22 09:33:12;;;;;;;4.70;3.30;;;18.20;99.60;;;;;;4230574;28;20258;-76
2022/01/22 09:35:15;;;;;;;4.95;3.03;;;18.20;99.60;;;;;;4230146;28;20222;-76
2022/01/22 09:37:17;;;;;;;4.95;3.40;;;18.20;99.60;;;;;;4220899;28;20234;-76
2022/01/22 09:39:20;;;;;;;4.82;3.20;;;18.20;99.60;;;;;;4230965;28;20201;-76
2022/01/22 09:41:26;;;;;;;5.43;3.58;;;18.20;99.90;;;;;;4230788;28;20647;-76
2022/01/22 09:43:28;;;;;;;5.32;2.85;;;18.20;99.60;;;;;;4230648;28;20213;-76
2022/01/22 09:45:31;;;;;;;5.28;3.33;;;18.20;99.60;;;;;;4230222;28;20255;-75
2022/01/22 09:47:35;;;;;;;3.75;2.75;;;18.20;99.60;;;;;;4223289;28;20264;-76
2022/01/22 09:49:38;;;;;;;4.57;3.28;;;18.20;99.60;;;;;;4224134;28;20251;-76
2022/01/22 09:51:40;;;;;;;4.10;3.28;;;18.30;99.60;;;;;;4228705;28;20258;-76
2022/01/22 09:53:44;;;;;;;4.75;3.15;;;18.20;99.60;;;;;;4218212;28;20220;-76
2022/01/22 09:55:46;;;;;;;3.83;3.30;;;18.30;99.60;;;;;;4223232;28;20711;-76
2022/01/22 09:57:50;;;;;;;5.10;3.00;;;18.30;99.60;;;;;;4230749;28;20278;-76
2022/01/22 09:59:53;;;;;;;4.93;3.75;;;18.30;99.60;;;;;;4230609;28;20600;-76
2022/01/22 10:02:08;;;;;;;4.10;2.95;;;18.30;99.80;;;;;;4230239;28;20271;-76
2022/01/22 10:04:10;;;;;;;4.10;3.38;;;18.30;99.60;;;;;;4230504;28;20214;-76
2022/01/22 10:06:14;;;;;;;4.22;3.15;;;18.30;99.70;;;;;;4230330;28;20213;-75
2022/01/22 10:08:31;;;;;;;4.68;3.25;;;18.30;99.70;;;;;;4230245;28;20969;-76
2022/01/22 10:10:39;;;;;;;3.72;2.97;;;18.30;99.70;;;;;;4220810;28;20214;-76
2022/01/22 10:12:47;;;;;;;5.35;3.60;;;18.30;99.80;;;;;;4229926;28;20270;-76
2022/01/22 10:15:09;;;;;;;5.57;3.60;;;18.30;99.90;;;;;;4230335;28;20559;-76
2022/01/22 10:17:12;;;;;;;4.18;2.95;;;18.40;99.70;;;;;;4229449;28;20226;-76
2022/01/22 10:19:17;;;;;;;5.10;3.45;;;18.40;99.70;;;;;;4230031;28;20266;-76
2022/01/22 10:21:19;;;;;;;3.70;3.38;;;18.40;99.70;;;;;;4230179;28;20209;-76
2022/01/22 10:23:26;;;;;;;9.57;3.83;;;18.40;99.70;;;;;;4230282;28;20218;-75
2022/01/22 10:25:32;;;;;;;5.32;3.53;;;18.40;99.80;;;;;;4229856;28;20221;-76
2022/01/22 10:27:37;;;;;;;3.72;3.38;;;18.40;99.80;;;;;;4220393;28;20214;-76
2022/01/22 10:29:48;;;;;;;6.25;3.30;;;18.40;99.80;;;;;;4223982;28;20202;-76
2022/01/22 10:32:01;;;;;;;5.00;3.08;;;18.40;99.90;;;;;;4229939;28;20993;-76
2022/01/22 10:34:09;;;;;;;4.97;3.75;;;18.40;99.80;;;;;;4225194;27;20235;-76
2022/01/22 10:36:15;;;;;;;3.35;2.97;;;18.40;99.90;;;;;;4228946;28;20232;-76
2022/01/22 10:38:18;;;;;;;3.45;3.13;;;18.40;99.80;;;;;;4229469;28;20295;-76
2022/01/22 10:40:27;;;;;;;4.28;2.78;;;18.40;99.90;;;;;;4229527;28;20210;-76
2022/01/22 10:42:29;;;;;;;4.25;3.42;;;18.50;99.90;;;;;;4213856;28;21048;-76
2022/01/22 10:44:46;;;;;;;3.70;3.22;;;18.40;99.90;;;;;;4220175;28;20222;-76
2022/01/22 10:46:52;;;;;;;4.25;3.38;;;18.50;99.90;;;;;;4216457;28;20231;-76
2022/01/22 10:48:58;;;;;;;5.97;3.42;;;18.50;99.90;;;;;;4230220;28;20255;-76
2022/01/22 10:51:07;;;;;;;3.97;3.20;;;18.50;99.90;;;;;;4227973;27;20266;-76
2022/01/22 10:53:10;;;;;;;4.10;3.17;;;18.50;99.90;;;;;;4224823;28;20267;-76
2022/01/22 10:55:12;;;;;;;5.35;3.58;;;18.50;99.90;;;;;;4229340;28;20206;-76
2022/01/22 10:57:17;;;;;;;4.70;3.20;;;18.50;99.90;;;;;;4229570;28;20645;-76
2022/01/22 10:59:21;;;;;;;3.55;2.88;;;18.50;99.90;;;;;;4229595;28;20613;-76
2022/01/22 11:01:27;;;;;;;4.68;3.60;;;18.60;99.90;;;;;;4221404;28;20619;-76
2022/01/22 11:03:30;;;;;;;4.28;3.38;;;18.60;99.90;;;;;;4230186;28;20658;-76
2022/01/22 11:05:38;;;;;;;4.97;3.45;;;18.60;99.90;;;;;;4229641;28;20256;-76
2022/01/22 11:07:41;;;;;;;4.43;3.17;;;18.60;99.90;;;;;;4229011;28;20205;-76
2022/01/22 11:09:43;;;;;;;3.50;2.83;;;18.60;99.90;;;;;;4224105;28;20611;-76
2022/01/22 11:11:46;;;;;;;4.65;3.10;;;18.60;99.90;;;;;;4217181;28;20719;-76
2022/01/22 11:13:50;;;;;;;4.35;3.50;;;18.60;99.90;;;;;;4226894;28;20687;-76
2022/01/22 11:15:54;;;;;;;3.65;3.13;;;18.60;99.90;;;;;;4229504;28;20662;-76
2022/01/22 11:17:58;;;;;;;4.53;3.30;;;18.60;99.90;;;;;;4223552;28;20242;-76
2022/01/22 11:20:02;;;;;;;4.03;2.90;;;18.60;99.90;;;;;;4226091;28;20218;-76
2022/01/22 11:22:11;;;;;;;3.92;3.53;;;18.60;99.90;;;;;;4229107;28;20210;-76
2022/01/22 11:24:14;;;;;;;4.40;3.30;;;18.60;99.90;;;;;;4228048;28;20658;-76
2022/01/22 11:26:17;;;;;;;3.33;2.72;;;18.60;99.90;;;;;;4228254;28;20218;-76
2022/01/22 11:28:21;;;;;;;4.93;3.45;;;18.70;99.90;;;;;;4224050;28;20626;-76
2022/01/22 11:30:27;;;;;;;3.47;2.90;;;18.70;99.90;;;;;;4212889;28;20214;-77
2022/01/22 11:32:32;;;;;;;4.90;3.25;;;18.70;99.90;;;;;;4213851;28;20214;-76
2022/01/22 11:34:37;;;;;;;3.72;3.20;;;18.60;99.90;;;;;;4216400;28;20214;-76
2022/01/22 11:36:46;;;;;;;3.75;2.90;;;18.70;99.90;;;;;;4217722;28;20280;-76
2022/01/22 11:38:54;;;;;;;5.00;3.10;;;18.70;99.90;;;;;;4231615;28;20286;-77
2022/01/22 11:41:05;;;;;;;6.05;3.22;;;18.70;99.90;;;;;;4214798;28;20221;-76
2022/01/22 11:43:11;;;;;;;4.38;3.40;;;18.60;99.80;;;;;;4223812;28;20247;-76
2022/01/22 11:45:26;;;;;;;5.55;3.20;;;18.70;99.80;;;;;;4229563;27;20259;-76
2022/01/22 11:47:28;;;;;;;4.65;3.20;;;18.70;99.90;;;;;;4231917;27;20258;-76
2022/01/22 11:49:32;;;;;;;4.35;3.20;;;18.70;99.90;;;;;;4232735;28;20209;-76
2022/01/22 11:51:34;;;;;;;5.03;3.60;;;18.70;99.90;;;;;;4231749;28;20255;-76